Time;durP1;ratioP1;P1;durP2;ratioP2;P2;SDS_P1;SDS_P2;PMS_P1;PMS_P2;Temp;Humidity;BMP_temperature;BMP_pressure;BME280_temperature;BME280_humidity;BME280_pressure;Samples;Min_cycle;Max_cycle;Signal;HPM_P1;HPM_P2
2023/07/17 00:03:19;;;;;;;3.78;2.78;;;;;;;20.79;67.53;101342.53;6032281;29;20241;-68
2023/07/17 00:06:40;;;;;;;3.22;2.92;;;;;;;20.65;67.67;101336.06;6022793;29;20242;-68
2023/07/17 00:10:03;;;;;;;4.25;2.92;;;;;;;20.64;67.47;101334.34;6048344;29;20236;-68
2023/07/17 00:13:24;;;;;;;3.80;2.10;;;;;;;20.96;66.77;101335.81;6022216;29;20805;-68
2023/07/17 00:16:45;;;;;;;4.35;2.67;;;;;;;20.97;66.37;101330.13;6046650;29;20233;-69
2023/07/17 00:20:07;;;;;;;3.35;2.53;;;;;;;20.83;66.21;101332.88;6044409;29;20259;-69
2023/07/17 00:23:28;;;;;;;3.25;2.30;;;;;;;21.07;65.80;101324.38;6036715;29;20256;-69
2023/07/17 00:26:50;;;;;;;2.78;2.40;;;;;;;20.98;65.87;101323.63;6053582;29;20316;-69
2023/07/17 00:30:12;;;;;;;2.88;2.20;;;;;;;20.85;66.01;101330.81;6062332;29;20259;-70
2023/07/17 00:33:33;;;;;;;4.25;2.17;;;;;;;20.97;65.99;101332.00;6053332;29;20238;-70
2023/07/17 00:36:54;;;;;;;2.38;2.17;;;;;;;20.86;66.24;101330.59;6048368;29;20237;-70
2023/07/17 00:40:15;;;;;;;4.50;2.75;;;;;;;20.93;66.15;101327.94;6064405;29;20260;-69
2023/07/17 00:43:37;;;;;;;1.70;1.60;;;;;;;20.89;66.23;101329.38;6037453;29;20241;-69
2023/07/17 00:46:59;;;;;;;2.47;1.73;;;;;;;20.78;66.46;101338.94;6052131;29;20237;-70
2023/07/17 00:50:20;;;;;;;4.32;2.40;;;;;;;20.55;67.22;101330.84;6059647;29;20328;-69
2023/07/17 00:53:42;;;;;;;3.63;2.25;;;;;;;20.64;67.32;101353.50;6049564;29;20240;-68
2023/07/17 00:57:05;;;;;;;2.15;1.92;;;;;;;20.83;66.99;101341.13;6061020;29;20233;-69
2023/07/17 01:00:27;;;;;;;2.67;2.10;;;;;;;20.81;66.55;101337.72;6060298;29;20323;-69
2023/07/17 01:03:52;;;;;;;3.80;2.10;;;;;;;20.89;66.53;101324.75;6065271;29;20327;-68
2023/07/17 01:07:15;;;;;;;3.10;2.53;;;;;;;20.69;67.20;101327.22;6046589;29;20225;-68
2023/07/17 01:10:36;;;;;;;4.47;1.80;;;;;;;20.63;67.45;101321.69;6062217;29;20244;-70
2023/07/17 01:13:57;;;;;;;7.25;2.55;;;;;;;20.46;68.19;101331.16;6070630;29;20762;-69
2023/07/17 01:17:19;;;;;;;7.95;2.58;;;;;;;20.67;68.00;101334.78;6072931;29;20245;-68
2023/07/17 01:20:41;;;;;;;5.40;3.05;;;;;;;20.54;68.59;101331.03;6068649;29;20323;-70
2023/07/17 01:24:06;;;;;;;3.75;3.30;;;;;;;20.42;68.89;101319.69;6048059;29;20236;-69
2023/07/17 01:27:29;;;;;;;3.42;2.95;;;;;;;20.64;68.52;101313.28;6034766;29;20241;-70
2023/07/17 01:30:50;;;;;;;3.28;2.53;;;;;;;20.68;68.38;101311.84;6067339;29;20241;-69
2023/07/17 01:34:12;;;;;;;3.13;2.92;;;;;;;20.64;68.39;101317.91;6056877;29;20241;-70
2023/07/17 01:37:33;;;;;;;2.65;2.40;;;;;;;20.84;67.84;101313.50;6070842;29;20591;-69
2023/07/17 01:40:58;;;;;;;3.15;2.85;;;;;;;20.65;68.43;101306.72;6055306;29;20238;-70
2023/07/17 01:44:19;;;;;;;9.75;2.88;;;;;;;20.55;69.56;101314.41;6064002;29;20600;-70
2023/07/17 01:47:40;;;;;;;3.03;2.72;;;;;;;20.73;70.27;101323.06;6056683;29;20611;-69
2023/07/17 01:51:01;;;;;;;2.60;2.40;;;;;;;20.35;72.15;101313.28;6066874;29;20249;-69
2023/07/17 01:54:23;;;;;;;3.60;2.67;;;;;;;20.30;72.46;101314.88;6051314;29;20248;-69
2023/07/17 01:57:45;;;;;;;3.03;2.03;;;;;;;20.59;72.32;101321.19;6060350;29;20233;-69
2023/07/17 02:01:07;;;;;;;3.17;2.83;;;;;;;20.53;72.48;101312.88;6030894;29;20344;-70
2023/07/17 02:04:28;;;;;;;3.40;2.50;;;;;;;20.20;73.25;101326.13;6062082;29;20615;-70
2023/07/17 02:07:50;;;;;;;2.92;2.67;;;;;;;19.52;74.90;101334.44;6060395;29;20245;-69
2023/07/17 02:11:11;;;;;;;3.80;3.00;;;;;;;19.55;76.20;101325.84;6069460;29;20738;-69
2023/07/17 02:14:34;;;;;;;2.70;2.35;;;;;;;19.63;76.16;101331.25;6069228;29;20236;-71
2023/07/17 02:17:55;;;;;;;2.95;2.70;;;;;;;19.98;75.71;101337.09;6054153;29;20246;-70
2023/07/17 02:21:17;;;;;;;4.95;2.28;;;;;;;19.63;76.70;101338.63;6049191;29;20246;-69
2023/07/17 02:24:38;;;;;;;4.57;2.53;;;;;;;19.47;76.74;101346.94;6066380;29;20241;-71
2023/07/17 02:27:59;;;;;;;4.22;3.10;;;;;;;19.52;77.24;101339.03;6061454;29;20229;-69
2023/07/17 02:31:21;;;;;;;4.57;2.97;;;;;;;19.02;78.12;101350.44;6067662;29;20242;-70
2023/07/17 02:34:42;;;;;;;4.00;2.75;;;;;;;19.26;78.36;101344.81;6061595;29;20241;-70
2023/07/17 02:38:03;;;;;;;2.45;2.25;;;;;;;19.33;78.01;101347.69;6058747;29;20608;-70
2023/07/17 02:41:24;;;;;;;5.35;2.88;;;;;;;19.28;78.18;101355.56;6054038;29;20323;-70
2023/07/17 02:44:45;;;;;;;2.45;2.25;;;;;;;19.30;78.08;101350.78;6055453;29;20221;-70
2023/07/17 02:48:07;;;;;;;3.33;2.58;;;;;;;19.40;77.50;101356.91;6048111;29;20229;-70
2023/07/17 02:51:28;;;;;;;6.45;3.45;;;;;;;19.56;76.06;101357.66;6056043;29;20252;-70
2023/07/17 02:54:49;;;;;;;2.70;2.50;;;;;;;19.71;74.86;101369.47;6054779;29;20232;-70
2023/07/17 02:58:16;;;;;;;2.95;2.70;;;;;;;19.49;74.44;101369.47;6057193;29;20310;-69
2023/07/17 03:01:37;;;;;;;4.05;2.10;;;;;;;19.38;74.32;101361.72;6057607;29;20245;-69
2023/07/17 03:05:00;;;;;;;2.85;2.20;;;;;;;19.41;74.00;101364.06;6055876;29;20561;-69
2023/07/17 03:08:20;;;;;;;3.38;2.38;;;;;;;19.25;74.18;101378.69;6052346;29;20328;-69
2023/07/17 03:11:41;;;;;;;2.53;2.22;;;;;;;19.58;73.42;101374.72;6054143;29;20237;-69
2023/07/17 03:15:04;;;;;;;2.17;1.98;;;;;;;19.47;72.57;101368.81;6051530;29;20268;-69
2023/07/17 03:18:25;;;;;;;5.68;3.20;;;;;;;19.31;72.30;101372.50;6041710;29;20268;-68
2023/07/17 03:21:47;;;;;;;3.45;3.13;;;;;;;19.38;72.15;101364.44;6060255;29;20242;-69
2023/07/17 03:25:08;;;;;;;2.88;1.80;;;;;;;19.41;71.64;101367.66;6061220;29;20233;-70
2023/07/17 03:28:29;;;;;;;4.07;2.30;;;;;;;19.35;70.40;101367.53;6061867;29;20315;-70
2023/07/17 03:31:50;;;;;;;3.35;2.17;;;;;;;19.57;70.05;101353.00;6068508;29;20249;-70
2023/07/17 03:35:11;;;;;;;2.85;2.65;;;;;;;19.51;69.69;101360.06;6063339;29;20240;-70
2023/07/17 03:38:33;;;;;;;2.20;2.05;;;;;;;19.50;69.62;101358.38;6028600;29;20238;-69
2023/07/17 03:41:54;;;;;;;2.65;2.45;;;;;;;19.49;69.76;101348.47;6049284;29;20238;-69
2023/07/17 03:45:15;;;;;;;3.95;2.60;;;;;;;19.99;69.33;101356.06;6063514;29;20237;-69
2023/07/17 03:48:36;;;;;;;2.75;2.38;;;;;;;19.86;68.44;101348.47;6058490;29;20264;-70
2023/07/17 03:52:01;;;;;;;4.40;2.85;;;;;;;19.96;67.83;101345.50;6073027;29;20524;-69
2023/07/17 03:55:23;;;;;;;3.10;2.47;;;;;;;19.76;68.33;101350.63;6061774;29;20244;-70
2023/07/17 03:58:44;;;;;;;2.85;2.65;;;;;;;19.78;68.03;101359.50;6054808;29;20232;-70
2023/07/17 04:02:06;;;;;;;2.70;2.50;;;;;;;19.76;68.22;101360.72;6047189;29;20229;-71
2023/07/17 04:05:27;;;;;;;6.22;2.17;;;;;;;19.72;68.14;101367.59;6044230;29;20233;-69
2023/07/17 04:08:48;;;;;;;3.55;3.25;;;;;;;19.76;67.78;101379.88;6043783;29;21966;-68
2023/07/17 04:12:12;;;;;;;3.28;2.63;;;;;;;19.43;68.55;101379.28;6057342;29;20257;-69
2023/07/17 04:15:35;;;;;;;2.50;2.30;;;;;;;19.42;69.08;101368.53;6056831;29;20233;-69
2023/07/17 04:18:57;;;;;;;4.28;3.05;;;;;;;19.35;69.48;101360.19;6047546;29;20241;-69
2023/07/17 04:22:18;;;;;;;2.22;2.03;;;;;;;19.54;69.70;101372.53;6056453;29;20320;-70
2023/07/17 04:25:42;;;;;;;4.25;2.63;;;;;;;19.44;69.61;101370.03;6044310;29;20257;-70
2023/07/17 04:29:06;;;;;;;3.20;2.53;;;;;;;19.35;69.95;101376.59;6044317;29;20231;-69
2023/07/17 04:32:27;;;;;;;2.72;2.53;;;;;;;19.23;70.06;101388.09;6059198;29;20232;-70
2023/07/17 04:35:48;;;;;;;4.88;2.00;;;;;;;19.49;69.84;101388.63;6066285;29;20331;-69
2023/07/17 04:39:10;;;;;;;3.17;1.95;;;;;;;19.36;69.91;101400.16;6049757;29;20272;-69
2023/07/17 04:42:31;;;;;;;2.83;2.63;;;;;;;19.26;70.40;101413.19;6045813;29;20240;-69
2023/07/17 04:45:54;;;;;;;6.15;3.15;;;;;;;19.29;70.38;101418.31;6048847;29;20237;-69
2023/07/17 04:49:17;;;;;;;5.72;2.63;;;;;;;19.54;70.57;101410.81;6053830;29;20229;-69
2023/07/17 04:52:38;;;;;;;2.30;2.10;;;;;;;19.42;70.63;101407.63;6040568;29;20496;-69
2023/07/17 04:55:59;;;;;;;3.03;2.35;;;;;;;19.26;71.17;101407.72;6053493;29;21102;-69
2023/07/17 04:59:20;;;;;;;3.17;2.33;;;;;;;19.20;71.26;101413.03;6029477;29;20252;-69
2023/07/17 05:02:44;;;;;;;6.22;2.75;;;;;;;19.27;71.74;101408.56;6037934;29;20241;-70
2023/07/17 05:06:06;;;;;;;4.72;3.58;;;;;;;19.10;71.64;101416.00;6041797;29;20250;-68
2023/07/17 05:09:27;;;;;;;2.15;1.85;;;;;;;19.33;71.77;101419.66;6034233;29;20236;-69
2023/07/17 05:12:48;;;;;;;2.65;2.30;;;;;;;19.25;71.88;101410.63;6047945;29;20265;-69
2023/07/17 05:16:10;;;;;;;4.15;2.33;;;;;;;19.12;72.30;101414.81;6048853;29;20654;-67
2023/07/17 05:19:33;;;;;;;3.40;1.80;;;;;;;19.05;72.11;101408.34;6038241;29;20240;-67
2023/07/17 05:22:55;;;;;;;4.38;1.85;;;;;;;19.36;72.06;101410.28;6053709;29;20255;-65
2023/07/17 05:26:16;;;;;;;3.20;2.38;;;;;;;19.58;71.66;101395.75;6053973;29;20230;-65
2023/07/17 05:29:37;;;;;;;4.90;2.97;;;;;;;19.58;71.68;101403.97;6056012;29;20244;-64
2023/07/17 05:32:59;;;;;;;6.40;2.85;;;;;;;19.58;72.31;101406.69;6068004;29;20244;-64
2023/07/17 05:36:22;;;;;;;4.45;2.65;;;;;;;19.56;71.78;101403.28;6043214;29;20265;-65
2023/07/17 05:39:44;;;;;;;4.95;2.75;;;;;;;19.33;71.80;101416.06;6039679;29;20333;-65
2023/07/17 05:43:05;;;;;;;5.97;3.10;;;;;;;19.13;72.70;101421.97;6061886;29;20233;-64
2023/07/17 05:46:28;;;;;;;3.38;2.30;;;;;;;19.40;72.65;101420.63;6036841;29;20261;-64
2023/07/17 05:49:49;;;;;;;3.03;2.78;;;;;;;19.11;72.96;101412.22;6044212;29;22155;-65
2023/07/17 05:53:12;;;;;;;4.13;2.88;;;;;;;19.17;73.12;101410.69;6035413;29;20295;-64
2023/07/17 05:56:32;;;;;;;5.53;3.67;;;;;;;19.71;72.32;101413.25;6057031;29;20277;-66
2023/07/17 05:59:53;;;;;;;6.72;3.33;;;;;;;19.56;72.04;101411.50;6036249;29;20237;-65
2023/07/17 06:03:14;;;;;;;6.63;3.47;;;;;;;19.35;72.63;101416.75;6055751;29;20388;-64
2023/07/17 06:06:35;;;;;;;9.38;3.33;;;;;;;19.45;72.15;101428.31;6053118;29;20327;-64
2023/07/17 06:09:58;;;;;;;3.28;2.53;;;;;;;19.40;72.90;101425.28;6049668;29;20245;-64
2023/07/17 06:13:19;;;;;;;3.13;2.83;;;;;;;19.30;72.82;101427.34;6061583;29;20236;-64
2023/07/17 06:16:40;;;;;;;7.65;3.42;;;;;;;19.27;72.79;101433.19;6059755;29;20233;-65
2023/07/17 06:20:02;;;;;;;3.35;2.40;;;;;;;19.29;73.50;101431.97;6059633;29;22007;-66
2023/07/17 06:23:23;;;;;;;5.40;3.05;;;;;;;19.99;71.85;101432.72;6048697;29;20257;-65
2023/07/17 06:26:46;;;;;;;3.13;2.78;;;;;;;19.62;71.65;101421.72;6053072;29;20332;-66
2023/07/17 06:30:08;;;;;;;3.42;3.08;;;;;;;20.05;71.21;101415.53;6067580;29;20240;-65
2023/07/17 06:33:29;;;;;;;5.28;2.25;;;;;;;20.01;71.50;101413.34;6065255;29;20876;-64
2023/07/17 06:36:51;;;;;;;4.10;2.67;;;;;;;20.17;69.94;101419.53;6043542;29;20776;-65
2023/07/17 06:40:12;;;;;;;3.83;2.97;;;;;;;19.72;70.75;101414.09;6063662;29;20236;-66
2023/07/17 06:43:34;;;;;;;5.07;2.83;;;;;;;19.70;70.99;101416.19;6052398;29;20325;-65
2023/07/17 06:46:56;;;;;;;2.83;2.38;;;;;;;19.73;71.22;101421.31;6041782;29;20230;-64
2023/07/17 06:50:17;;;;;;;4.68;2.40;;;;;;;19.99;70.89;101421.75;6069563;29;20311;-64
2023/07/17 06:53:38;;;;;;;5.15;3.53;;;;;;;20.05;70.73;101429.25;6057844;29;20249;-64
2023/07/17 06:57:01;;;;;;;3.22;2.72;;;;;;;19.98;70.56;101431.03;6048698;29;20230;-65
2023/07/17 07:00:23;;;;;;;4.47;2.40;;;;;;;19.45;71.43;101440.09;6071430;29;20379;-64
2023/07/17 07:03:44;;;;;;;9.88;4.28;;;;;;;19.51;71.81;101438.53;6043827;29;20255;-64
2023/07/17 07:07:05;;;;;;;3.75;3.28;;;;;;;19.85;71.68;101439.84;6063431;29;20269;-65
2023/07/17 07:10:26;;;;;;;4.28;3.20;;;;;;;19.52;72.48;101445.72;6061382;29;20232;-65
2023/07/17 07:13:47;;;;;;;3.65;2.42;;;;;;;19.72;72.28;101436.84;6056391;29;20240;-66
2023/07/17 07:17:13;;;;;;;4.10;2.60;;;;;;;19.73;71.71;101443.19;6041388;29;20241;-65
2023/07/17 07:20:33;;;;;;;8.68;2.78;;;;;;;19.90;71.54;101448.34;6069855;29;20236;-65
2023/07/17 07:23:54;;;;;;;3.67;2.50;;;;;;;19.76;72.33;101443.66;6071783;29;20253;-64
2023/07/17 07:27:16;;;;;;;4.93;2.67;;;;;;;20.02;71.74;101459.72;6069650;29;20237;-64
2023/07/17 07:30:36;;;;;;;2.75;2.05;;;;;;;20.35;71.22;101444.75;6058909;29;20249;-66
2023/07/17 07:33:58;;;;;;;7.18;3.28;;;;;;;20.26;70.55;101440.38;6028921;29;20717;-65
2023/07/17 07:37:19;;;;;;;4.47;2.88;;;;;;;20.05;70.88;101445.66;6050792;29;20317;-66
2023/07/17 07:40:40;;;;;;;7.72;3.85;;;;;;;20.31;70.75;101437.94;6037087;29;20244;-65
2023/07/17 07:44:01;;;;;;;7.30;3.38;;;;;;;20.44;69.89;101434.56;6055850;29;20619;-65
2023/07/17 07:47:22;;;;;;;3.40;2.08;;;;;;;21.00;68.89;101438.56;6063552;29;20696;-65
2023/07/17 07:50:45;;;;;;;2.30;2.10;;;;;;;20.85;68.05;101441.31;6060211;29;20232;-66
2023/07/17 07:54:06;;;;;;;6.57;2.75;;;;;;;21.50;66.78;101435.88;6048800;29;20236;-65
2023/07/17 07:57:26;;;;;;;3.65;2.88;;;;;;;21.20;66.79;101439.69;6053526;29;21025;-65
2023/07/17 08:00:47;;;;;;;4.35;3.33;;;;;;;20.41;68.10;101444.00;6055650;29;20244;-64
2023/07/17 08:04:08;;;;;;;5.13;3.05;;;;;;;21.73;66.18;101442.03;6052278;29;20674;-64
2023/07/17 08:07:31;;;;;;;4.13;2.97;;;;;;;21.88;64.23;101442.84;6063397;29;21315;-65
2023/07/17 08:10:53;;;;;;;3.65;2.53;;;;;;;21.69;63.38;101451.72;6044723;29;20244;-65
2023/07/17 08:14:15;;;;;;;2.70;2.08;;;;;;;21.15;63.13;101456.72;6061338;29;20228;-65
2023/07/17 08:17:36;;;;;;;3.70;2.42;;;;;;;21.88;62.46;101448.34;6069891;29;20238;-66
2023/07/17 08:20:57;;;;;;;3.33;2.47;;;;;;;21.59;62.13;101451.16;6061621;29;20233;-65
2023/07/17 08:24:19;;;;;;;2.08;1.90;;;;;;;21.38;61.18;101460.19;6367288;23;20261;-64
2023/07/17 08:27:40;;;;;;;5.88;2.17;;;;;;;21.31;60.60;101451.06;6140620;28;20912;-64
2023/07/17 08:31:04;;;;;;;4.90;2.08;;;;;;;21.63;59.88;101468.09;6126651;28;20238;-66
2023/07/17 08:34:24;;;;;;;2.78;1.92;;;;;;;22.35;58.57;101464.22;6114940;28;20239;-68
2023/07/17 08:37:45;;;;;;;5.55;2.22;;;;;;;22.47;57.95;101468.13;6121484;28;20676;-68
2023/07/17 08:41:08;;;;;;;3.03;2.45;;;;;;;21.91;58.02;101464.44;6130716;28;20588;-69
2023/07/17 08:44:31;;;;;;;5.97;2.75;;;;;;;22.10;57.54;101455.53;6123135;28;20234;-68
2023/07/17 08:47:54;;;;;;;2.42;2.00;;;;;;;22.43;57.13;101469.56;6122765;28;20600;-67
2023/07/17 08:51:15;;;;;;;5.88;2.67;;;;;;;22.15;56.41;101460.44;6124700;28;20238;-68
2023/07/17 08:54:37;;;;;;;5.20;1.90;;;;;;;22.68;55.85;101459.00;6105277;28;20250;-69
2023/07/17 08:58:03;;;;;;;2.78;2.17;;;;;;;22.56;54.79;101464.19;6118571;28;20290;-69
2023/07/17 09:01:24;;;;;;;4.03;1.80;;;;;;;22.76;54.54;101459.69;6127801;28;20231;-68
2023/07/17 09:04:45;;;;;;;6.45;3.05;;;;;;;22.19;56.00;101459.88;6125016;28;20620;-69
2023/07/17 09:08:06;;;;;;;2.20;1.98;;;;;;;22.54;55.51;101460.78;6137692;28;20235;-69
2023/07/17 09:11:27;;;;;;;2.83;2.55;;;;;;;22.48;54.58;101439.59;6127176;28;20600;-69
2023/07/17 09:14:49;;;;;;;4.70;1.90;;;;;;;22.92;53.88;101455.78;6104567;28;20350;-69
2023/07/17 09:18:10;;;;;;;3.95;1.85;;;;;;;22.32;53.41;101475.59;6111945;28;20601;-67
2023/07/17 09:21:31;;;;;;;3.15;1.48;;;;;;;22.27;53.71;101456.13;6116323;28;20227;-69
2023/07/17 09:24:52;;;;;;;2.67;1.80;;;;;;;22.70;53.14;101457.75;6121530;28;20504;-69
2023/07/17 09:28:13;;;;;;;1.83;1.40;;;;;;;22.76;52.42;101467.13;6136674;28;20240;-69
2023/07/17 09:31:35;;;;;;;3.47;2.25;;;;;;;22.88;51.87;101444.31;6139279;28;20223;-69
2023/07/17 09:35:04;;;;;;;1.45;1.13;;;;;;;22.77;51.48;101463.31;6126229;28;20247;-69
2023/07/17 09:38:26;;;;;;;2.75;2.22;;;;;;;23.06;51.81;101479.56;6137717;28;20321;-69
2023/07/17 09:41:47;;;;;;;5.47;2.83;;;;;;;22.99;51.28;101497.91;6133063;28;20230;-68
2023/07/17 09:45:11;;;;;;;1.63;1.50;;;;;;;22.29;52.95;101489.75;6126292;28;20266;-69
2023/07/17 09:48:34;;;;;;;4.10;2.78;;;;;;;22.72;53.00;101476.78;6126557;28;20677;-69
2023/07/17 09:51:56;;;;;;;6.88;2.22;;;;;;;22.82;52.07;101471.81;6134596;28;20600;-69
2023/07/17 09:55:20;;;;;;;4.55;2.00;;;;;;;22.88;51.88;101482.81;6122821;28;20584;-68
2023/07/17 09:58:45;;;;;;;5.20;2.03;;;;;;;22.95;52.49;101491.13;6117533;28;20267;-69
2023/07/17 10:02:15;;;;;;;2.70;1.63;;;;;;;22.56;52.45;101485.31;6141781;28;20235;-70
2023/07/17 10:05:38;;;;;;;4.47;1.90;;;;;;;23.29;50.98;101487.53;6109546;28;20529;-69
2023/07/17 10:09:00;;;;;;;2.35;2.08;;;;;;;22.79;51.69;101480.44;6110864;28;22479;-69
2023/07/17 10:12:21;;;;;;;2.60;1.80;;;;;;;22.93;51.36;101493.22;6130291;28;20231;-69
2023/07/17 10:15:43;;;;;;;8.65;2.03;;;;;;;23.66;50.72;101496.19;6136450;28;20251;-69
2023/07/17 10:19:04;;;;;;;4.10;2.08;;;;;;;23.41;50.98;101488.66;6120473;28;20235;-69
2023/07/17 10:22:33;;;;;;;2.00;1.73;;;;;;;22.65;51.75;101493.25;6123080;28;20263;-68
2023/07/17 10:26:07;;;;;;;5.63;2.53;;;;;;;22.46;50.70;101510.41;6127125;28;20239;-68
2023/07/17 10:29:32;;;;;;;5.60;1.63;;;;;;;23.12;50.74;101489.75;6119853;28;20230;-68
2023/07/17 10:33:13;;;;;;;3.13;1.88;;;;;;;22.61;49.70;101510.34;6127395;28;20231;-68
2023/07/17 10:36:37;;;;;;;3.53;1.67;;;;;;;22.89;50.12;101498.28;6112848;28;20244;-67
2023/07/17 10:40:06;;;;;;;8.77;2.75;;;;;;;22.37;50.71;101513.47;6103404;28;20268;-71
2023/07/17 10:43:27;;;;;;;1.33;1.15;;;;;;;22.14;50.64;101516.41;6088748;28;20243;-68
2023/07/17 10:46:48;;;;;;;7.32;2.28;;;;;;;22.61;50.83;101505.69;6115973;28;20643;-69
2023/07/17 10:50:10;;;;;;;4.78;2.40;;;;;;;22.43;50.51;101499.78;6129001;28;20706;-68
2023/07/17 10:53:30;;;;;;;7.55;2.22;;;;;;;22.90;50.22;101497.25;6117854;28;22564;-69
2023/07/17 10:56:53;;;;;;;3.70;3.10;;;;;;;23.59;49.67;101499.97;6122791;28;20243;-67
2023/07/17 11:00:15;;;;;;;2.20;1.85;;;;;;;23.83;49.69;101510.44;6115785;28;20817;-70
2023/07/17 11:03:37;;;;;;;3.28;2.53;;;;;;;23.95;49.19;101536.31;6115249;28;20235;-68
2023/07/17 11:07:07;;;;;;;5.28;2.80;;;;;;;23.90;49.88;101515.97;6127712;28;20239;-67
2023/07/17 11:10:28;;;;;;;4.63;2.50;;;;;;;23.08;49.76;101515.97;6138152;28;20782;-67
2023/07/17 11:13:52;;;;;;;2.50;2.13;;;;;;;23.52;49.85;101513.72;6118690;28;20230;-69
2023/07/17 11:17:13;;;;;;;2.38;2.17;;;;;;;23.62;50.04;101516.06;6135229;28;20593;-68
2023/07/17 11:20:35;;;;;;;6.25;2.22;;;;;;;23.08;50.28;101518.72;6127513;28;20228;-68
2023/07/17 11:23:57;;;;;;;4.28;2.28;;;;;;;23.67;48.81;101503.41;6105294;28;20251;-69
2023/07/17 11:27:18;;;;;;;4.88;2.22;;;;;;;23.36;49.70;101526.97;6122200;28;20227;-69
2023/07/17 11:30:40;;;;;;;3.45;2.75;;;;;;;23.34;49.83;101526.34;6102285;28;20234;-67
2023/07/17 11:34:05;;;;;;;3.70;2.15;;;;;;;23.14;51.02;101526.16;6106087;28;20330;-68
2023/07/17 11:37:30;;;;;;;2.95;2.50;;;;;;;23.38;50.99;101525.72;6124391;28;20315;-68
2023/07/17 11:40:52;;;;;;;5.20;3.05;;;;;;;22.29;52.50;101550.19;6110418;28;20262;-68
2023/07/17 11:44:16;;;;;;;3.17;2.50;;;;;;;22.57;53.06;101528.25;6115383;28;20297;-68
2023/07/17 11:47:38;;;;;;;4.22;2.45;;;;;;;22.44;53.55;101528.13;6130380;28;20254;-68
2023/07/17 11:51:01;;;;;;;3.65;2.10;;;;;;;22.45;53.98;101538.91;6106993;28;20444;-67
2023/07/17 11:54:22;;;;;;;4.18;2.45;;;;;;;23.10;53.86;101533.13;6115262;28;20248;-70
2023/07/17 11:57:50;;;;;;;3.53;2.50;;;;;;;23.90;52.98;101532.50;6117956;28;20947;-68
2023/07/17 12:01:10;;;;;;;4.35;2.70;;;;;;;23.59;53.82;101538.53;6108438;28;20749;-71
2023/07/17 12:04:40;;;;;;;3.03;2.25;;;;;;;23.09;55.77;101547.09;6108461;28;20239;-68
2023/07/17 12:08:01;;;;;;;2.40;1.67;;;;;;;22.35;58.59;101554.91;6114858;28;20234;-68
2023/07/17 12:11:22;;;;;;;2.42;1.80;;;;;;;21.50;60.29;101575.81;6114368;28;20240;-67
2023/07/17 12:14:42;;;;;;;3.17;1.65;;;;;;;21.11;62.99;101606.25;6107509;28;20480;-69
2023/07/17 12:18:04;;;;;;;2.08;1.30;;;;;;;21.22;64.45;101605.78;6138296;28;20812;-67
2023/07/17 12:21:26;;;;;;;3.15;1.40;;;;;;;21.78;64.47;101592.47;6141352;28;20621;-68
2023/07/17 12:24:47;;;;;;;1.35;1.25;;;;;;;22.52;62.40;101583.81;6122768;28;20235;-69
2023/07/17 12:28:08;;;;;;;1.20;1.10;;;;;;;23.05;59.14;101594.25;6120862;28;20243;-68
2023/07/17 12:31:29;;;;;;;1.70;0.93;;;;;;;24.06;57.33;101592.75;6129171;28;20223;-69
2023/07/17 12:34:50;;;;;;;1.20;0.95;;;;;;;24.40;55.23;101596.28;6120702;28;20235;-69
2023/07/17 12:38:12;;;;;;;1.20;1.08;;;;;;;24.85;53.04;101596.56;6123923;28;20307;-67
2023/07/17 12:41:33;;;;;;;0.60;0.60;;;;;;;24.42;51.80;101604.31;6117290;28;20352;-69
2023/07/17 12:44:54;;;;;;;0.85;0.85;;;;;;;24.42;52.20;101596.91;6125749;28;20290;-68
2023/07/17 12:48:14;;;;;;;2.88;1.10;;;;;;;24.87;52.33;101603.56;6131978;28;20551;-68
2023/07/17 12:51:35;;;;;;;1.40;0.70;;;;;;;25.24;52.09;101593.78;6123017;28;20231;-68
2023/07/17 12:54:57;;;;;;;3.50;1.30;;;;;;;24.39;51.90;101605.59;6120608;28;20834;-69
2023/07/17 12:58:18;;;;;;;0.65;0.60;;;;;;;24.63;51.80;101587.59;6122042;28;20238;-69
2023/07/17 13:01:39;;;;;;;4.05;1.20;;;;;;;24.92;51.82;101595.50;6128032;28;20227;-70
2023/07/17 13:05:00;;;;;;;1.42;1.20;;;;;;;23.86;54.16;101592.69;6126796;28;20290;-69
2023/07/17 13:08:24;;;;;;;1.80;1.50;;;;;;;22.35;54.93;101596.13;6120187;28;21848;-69
2023/07/17 13:11:46;;;;;;;1.98;1.20;;;;;;;21.74;54.75;101591.97;6125033;28;20224;-68
2023/07/17 13:15:08;;;;;;;1.92;1.30;;;;;;;21.54;56.44;101606.47;6114419;28;20236;-67
2023/07/17 13:18:29;;;;;;;2.28;1.48;;;;;;;21.17;58.97;101618.38;6124922;28;21072;-69
2023/07/17 13:21:50;;;;;;;2.30;1.60;;;;;;;20.62;60.98;101625.00;6122679;28;20232;-70
2023/07/17 13:25:11;;;;;;;2.85;1.50;;;;;;;19.96;63.00;101634.78;6130258;28;20238;-70
2023/07/17 13:28:34;;;;;;;3.13;1.75;;;;;;;19.82;65.74;101641.84;6135493;28;20318;-70
2023/07/17 13:31:58;;;;;;;1.15;1.05;;;;;;;19.10;67.48;101638.28;6131959;28;20235;-70
2023/07/17 13:35:20;;;;;;;1.83;1.27;;;;;;;19.20;68.61;101627.16;6121262;28;20311;-68
2023/07/17 13:38:41;;;;;;;2.88;2.10;;;;;;;19.27;69.29;101630.91;6116036;28;20242;-68
2023/07/17 13:42:02;;;;;;;1.60;1.50;;;;;;;19.43;69.49;101621.81;6138637;28;20231;-68
2023/07/17 13:45:25;;;;;;;2.75;1.73;;;;;;;19.43;69.08;101622.69;6134136;28;20234;-68
2023/07/17 13:48:45;;;;;;;1.92;1.33;;;;;;;19.26;70.81;101623.72;6125436;28;20239;-69
2023/07/17 13:52:07;;;;;;;2.10;1.63;;;;;;;19.10;72.03;101623.75;6134996;28;20306;-69
2023/07/17 13:55:28;;;;;;;2.35;1.05;;;;;;;19.65;71.33;101615.63;6128606;28;20404;-72
2023/07/17 13:58:48;;;;;;;3.20;1.52;;;;;;;19.71;70.09;101615.72;6121779;28;20716;-69
2023/07/17 14:02:10;;;;;;;1.25;1.15;;;;;;;19.58;69.71;101611.88;6136689;28;20239;-71
2023/07/17 14:05:31;;;;;;;2.80;1.02;;;;;;;19.56;69.45;101609.31;6124759;28;20235;-69
2023/07/17 14:08:53;;;;;;;3.88;1.40;;;;;;;20.10;68.38;101613.00;6122489;28;20235;-69
2023/07/17 14:12:14;;;;;;;1.67;1.55;;;;;;;20.02;66.38;101604.81;6126416;28;20231;-67
2023/07/17 14:15:35;;;;;;;1.55;1.40;;;;;;;19.99;64.26;101607.03;6131732;28;20687;-67
2023/07/17 14:18:58;;;;;;;2.53;1.75;;;;;;;20.37;64.15;101612.50;6115767;28;20227;-67
2023/07/17 14:22:19;;;;;;;1.35;1.25;;;;;;;20.79;63.87;101609.28;6106055;29;20322;-68
2023/07/17 14:25:39;;;;;;;2.53;1.75;;;;;;;20.75;63.51;101613.41;6130922;28;20235;-68
2023/07/17 14:29:00;;;;;;;4.30;2.03;;;;;;;20.26;64.74;101617.53;6119943;28;20510;-67
2023/07/17 14:32:21;;;;;;;2.67;1.77;;;;;;;20.16;65.42;101614.13;6123258;28;20243;-66
2023/07/17 14:35:43;;;;;;;7.97;1.88;;;;;;;20.07;66.27;101613.34;6136313;28;20239;-66
2023/07/17 14:39:04;;;;;;;2.72;1.77;;;;;;;20.02;67.22;101599.34;6118502;28;20255;-66
2023/07/17 14:42:25;;;;;;;1.85;1.50;;;;;;;20.08;68.36;101587.69;6130878;28;20232;-68
2023/07/17 14:45:46;;;;;;;2.33;1.67;;;;;;;19.77;69.39;101584.94;6123581;28;20227;-67
2023/07/17 14:49:07;;;;;;;2.70;1.50;;;;;;;19.78;69.89;101575.69;6120794;28;20242;-68
2023/07/17 14:52:29;;;;;;;2.00;1.38;;;;;;;20.13;69.85;101579.75;6134605;28;20498;-68
2023/07/17 14:55:50;;;;;;;2.13;1.40;;;;;;;20.19;69.58;101583.69;6121113;28;20242;-68
2023/07/17 14:59:11;;;;;;;2.92;1.88;;;;;;;19.76;70.52;101596.06;6124189;28;20235;-69
2023/07/17 15:02:32;;;;;;;2.55;2.30;;;;;;;20.38;69.52;101591.44;6102950;28;20262;-69
2023/07/17 15:05:53;;;;;;;2.42;1.77;;;;;;;21.61;67.66;101583.53;6119368;28;20235;-69
2023/07/17 15:09:15;;;;;;;2.60;1.83;;;;;;;21.17;65.56;101583.53;6106300;28;20235;-68
2023/07/17 15:12:36;;;;;;;11.18;9.52;;;;;;;20.65;67.06;101577.19;6133477;28;20419;-71
2023/07/17 15:15:57;;;;;;;217.85;197.57;;;;;;;21.91;65.06;101587.13;6118486;28;20223;-67
2023/07/17 15:19:18;;;;;;;35.55;33.13;;;;;;;22.10;62.04;101581.03;6101717;28;20509;-72
2023/07/17 15:22:42;;;;;;;17.25;15.80;;;;;;;21.95;61.41;101599.44;6116158;28;20228;-75
2023/07/17 15:26:05;;;;;;;13.13;12.35;;;;;;;22.41;60.04;101603.56;6109218;28;20238;-75
2023/07/17 15:29:25;;;;;;;8.95;8.45;;;;;;;21.44;59.08;101609.50;6095570;28;20314;-68
2023/07/17 15:32:46;;;;;;;3.75;1.88;;;;;;;21.85;58.65;101607.13;6127596;28;20616;-69
2023/07/17 15:36:08;;;;;;;3.03;2.30;;;;;;;21.26;59.19;101612.59;6108216;28;20326;-69
2023/07/17 15:39:28;;;;;;;1.92;1.67;;;;;;;21.86;59.20;101609.69;6118043;28;20270;-69